Upper Key Largo, Florida
Current Conditions -  °F | °C
As of 9:58 AM on Thursday 30 Oct 2014 (Local Time) from KHST Reporting Station
Clear Clear  
Wind Chill: 79°   Ceiling: Unl
Heat Index: 81°   Visibility: 10mi
Dew Point: 67°   Wind: 3mph
Humidity: 68%   Direction: 300°WNW
Pressure: 29.99"   Gusts: NA
Location:  25.2553°N, 80.3918°W
Report Text: KHST 301358Z AUTO 30003KT 10SM CLR 26/20 A2999 RMK AO2 SLP159 T02590195
Loading
Personal Weather Stations






























Interactive Weather Map
Tropical Storm Tracking
New forecast layout! Learn more

10-Day Weather Forecast

Advertisements
Track Severe Weather on mobile